sensor_id;sensor_type;location;lat;lon;timestamp;pressure;altitude;pressure_sealevel;temperature;humidity
46782;BME280;32541;46.298;11.506;2023-04-04T00:01:46;89153.00;;;0.00;43.31
46782;BME280;32541;46.298;11.506;2023-04-04T00:04:13;89145.31;;;0.05;43.21
46782;BME280;32541;46.298;11.506;2023-04-04T00:06:38;89148.00;;;0.05;42.52
46782;BME280;32541;46.298;11.506;2023-04-04T00:09:09;89147.28;;;0.04;43.08
46782;BME280;32541;46.298;11.506;2023-04-04T00:11:34;89139.47;;;0.00;43.02
46782;BME280;32541;46.298;11.506;2023-04-04T00:14:00;89139.44;;;0.14;43.17
46782;BME280;32541;46.298;11.506;2023-04-04T00:16:25;89140.91;;;0.15;43.43
46782;BME280;32541;46.298;11.506;2023-04-04T00:18:51;89144.31;;;0.15;42.90
46782;BME280;32541;46.298;11.506;2023-04-04T00:21:16;89138.66;;;0.06;43.91
46782;BME280;32541;46.298;11.506;2023-04-04T00:23:42;89135.34;;;-0.01;42.92
46782;BME280;32541;46.298;11.506;2023-04-04T00:26:07;89135.13;;;-0.03;42.84
46782;BME280;32541;46.298;11.506;2023-04-04T00:28:32;89131.19;;;-0.15;43.50
46782;BME280;32541;46.298;11.506;2023-04-04T00:30:59;89131.63;;;-0.11;43.15
46782;BME280;32541;46.298;11.506;2023-04-04T00:33:25;89129.44;;;-0.12;43.35
46782;BME280;32541;46.298;11.506;2023-04-04T00:35:51;89130.88;;;-0.11;42.94
46782;BME280;32541;46.298;11.506;2023-04-04T00:38:17;89122.06;;;-0.12;42.51
46782;BME280;32541;46.298;11.506;2023-04-04T00:40:45;89122.16;;;-0.17;42.72
46782;BME280;32541;46.298;11.506;2023-04-04T00:43:13;89123.09;;;-0.15;43.34
46782;BME280;32541;46.298;11.506;2023-04-04T00:45:38;89131.63;;;-0.11;42.93
46782;BME280;32541;46.298;11.506;2023-04-04T00:48:05;89130.50;;;-0.15;42.50
46782;BME280;32541;46.298;11.506;2023-04-04T00:50:30;89122.16;;;-0.17;42.15
46782;BME280;32541;46.298;11.506;2023-04-04T00:52:56;89119.59;;;-0.23;42.05
46782;BME280;32541;46.298;11.506;2023-04-04T00:55:24;89109.09;;;-0.26;42.30
46782;BME280;32541;46.298;11.506;2023-04-04T00:57:50;89109.19;;;-0.19;42.52
46782;BME280;32541;46.298;11.506;2023-04-04T01:00:15;89113.03;;;-0.14;42.41
46782;BME280;32541;46.298;11.506;2023-04-04T01:02:42;89118.53;;;-0.20;42.60
46782;BME280;32541;46.298;11.506;2023-04-04T01:05:08;89117.19;;;-0.13;42.80
46782;BME280;32541;46.298;11.506;2023-04-04T01:07:34;89113.88;;;-0.19;42.41
46782;BME280;32541;46.298;11.506;2023-04-04T01:10:00;89109.28;;;-0.11;41.91
46782;BME280;32541;46.298;11.506;2023-04-04T01:12:28;89114.38;;;-0.21;41.80
46782;BME280;32541;46.298;11.506;2023-04-04T01:14:54;89110.88;;;-0.29;42.12
46782;BME280;32541;46.298;11.506;2023-04-04T01:17:20;89114.91;;;-0.22;42.08
46782;BME280;32541;46.298;11.506;2023-04-04T01:19:54;89122.72;;;-0.19;42.24
46782;BME280;32541;46.298;11.506;2023-04-04T01:22:21;89116.88;;;-0.23;42.85
46782;BME280;32541;46.298;11.506;2023-04-04T01:24:47;89118.22;;;-0.16;40.73
46782;BME280;32541;46.298;11.506;2023-04-04T01:27:15;89113.13;;;-0.20;41.83
46782;BME280;32541;46.298;11.506;2023-04-04T01:29:40;89118.47;;;-0.27;41.68
46782;BME280;32541;46.298;11.506;2023-04-04T01:32:12;89109.44;;;-0.30;41.97
46782;BME280;32541;46.298;11.506;2023-04-04T01:35:01;89112.22;;;-0.35;42.21
46782;BME280;32541;46.298;11.506;2023-04-04T01:37:40;89114.72;;;-0.37;42.29
46782;BME280;32541;46.298;11.506;2023-04-04T01:40:16;89113.38;;;-0.31;41.85
46782;BME280;32541;46.298;11.506;2023-04-04T01:42:44;89113.50;;;-0.36;42.11
46782;BME280;32541;46.298;11.506;2023-04-04T01:45:10;89109.97;;;-0.44;42.79
46782;BME280;32541;46.298;11.506;2023-04-04T01:47:38;89109.25;;;-0.45;42.75
46782;BME280;32541;46.298;11.506;2023-04-04T01:50:04;89107.19;;;-0.52;42.73
46782;BME280;32541;46.298;11.506;2023-04-04T01:52:30;89114.66;;;-0.45;42.99
46782;BME280;32541;46.298;11.506;2023-04-04T01:54:55;89107.72;;;-0.53;42.66
46782;BME280;32541;46.298;11.506;2023-04-04T01:57:21;89110.09;;;-0.63;43.03
46782;BME280;32541;46.298;11.506;2023-04-04T01:59:46;89111.03;;;-0.61;42.37
46782;BME280;32541;46.298;11.506;2023-04-04T02:02:11;89118.31;;;-0.69;42.70
46782;BME280;32541;46.298;11.506;2023-04-04T02:04:37;89109.69;;;-0.67;42.59
46782;BME280;32541;46.298;11.506;2023-04-04T02:07:02;89115.94;;;-0.72;42.72
46782;BME280;32541;46.298;11.506;2023-04-04T02:09:28;89125.06;;;-0.75;42.71
46782;BME280;32541;46.298;11.506;2023-04-04T02:11:54;89120.41;;;-0.75;43.42
46782;BME280;32541;46.298;11.506;2023-04-04T02:14:20;89128.59;;;-0.67;41.93
46782;BME280;32541;46.298;11.506;2023-04-04T02:16:45;89126.19;;;-0.71;42.58
46782;BME280;32541;46.298;11.506;2023-04-04T02:19:11;89118.19;;;-0.76;42.84
46782;BME280;32541;46.298;11.506;2023-04-04T02:21:37;89120.41;;;-0.75;42.69
46782;BME280;32541;46.298;11.506;2023-04-04T02:24:02;89124.94;;;-0.83;42.67
46782;BME280;32541;46.298;11.506;2023-04-04T02:26:28;89118.00;;;-0.91;42.97
46782;BME280;32541;46.298;11.506;2023-04-04T02:28:53;89116.75;;;-0.90;43.09
46782;BME280;32541;46.298;11.506;2023-04-04T02:31:18;89108.88;;;-0.75;42.37
46782;BME280;32541;46.298;11.506;2023-04-04T02:33:44;89115.59;;;-0.82;42.72
46782;BME280;32541;46.298;11.506;2023-04-04T02:36:09;89115.00;;;-0.75;43.31
46782;BME280;32541;46.298;11.506;2023-04-04T02:38:36;89113.53;;;-0.76;42.80
46782;BME280;32541;46.298;11.506;2023-04-04T02:41:01;89120.81;;;-0.84;43.14
46782;BME280;32541;46.298;11.506;2023-04-04T02:43:26;89112.19;;;-0.82;42.44
46782;BME280;32541;46.298;11.506;2023-04-04T02:45:52;89110.94;;;-0.94;42.24
46782;BME280;32541;46.298;11.506;2023-04-04T02:48:17;89108.78;;;-0.96;42.85
46782;BME280;32541;46.298;11.506;2023-04-04T02:50:45;89110.19;;;-0.95;42.24
46782;BME280;32541;46.298;11.506;2023-04-04T02:53:12;89113.22;;;-0.98;43.04
46782;BME280;32541;46.298;11.506;2023-04-04T02:55:37;89105.13;;;-0.98;42.84
46782;BME280;32541;46.298;11.506;2023-04-04T02:58:03;89115.81;;;-1.06;43.66
46782;BME280;32541;46.298;11.506;2023-04-04T03:00:28;89119.34;;;-0.98;43.40
46782;BME280;32541;46.298;11.506;2023-04-04T03:02:54;89118.41;;;-1.00;42.74
46782;BME280;32541;46.298;11.506;2023-04-04T03:05:20;89121.41;;;-0.91;43.23
46782;BME280;32541;46.298;11.506;2023-04-04T03:07:45;89111.16;;;-0.92;43.39
46782;BME280;32541;46.298;11.506;2023-04-04T03:10:11;89108.16;;;-1.02;42.53
46782;BME280;32541;46.298;11.506;2023-04-04T03:12:36;89116.53;;;-1.05;43.45
46782;BME280;32541;46.298;11.506;2023-04-04T03:15:02;89115.59;;;-1.08;43.89
46782;BME280;32541;46.298;11.506;2023-04-04T03:17:28;89109.59;;;-1.14;43.44
46782;BME280;32541;46.298;11.506;2023-04-04T03:19:54;89111.56;;;-1.15;43.21
46782;BME280;32541;46.298;11.506;2023-04-04T03:22:19;89102.63;;;-1.09;43.51
46782;BME280;32541;46.298;11.506;2023-04-04T03:24:44;89103.22;;;-1.30;43.48
46782;BME280;32541;46.298;11.506;2023-04-04T03:27:10;89112.16;;;-1.22;43.49
46782;BME280;32541;46.298;11.506;2023-04-04T03:29:35;89104.69;;;-1.29;44.05
46782;BME280;32541;46.298;11.506;2023-04-04T03:32:01;89103.56;;;-1.20;43.56
46782;BME280;32541;46.298;11.506;2023-04-04T03:34:27;89095.78;;;-1.37;44.04
46782;BME280;32541;46.298;11.506;2023-04-04T03:36:52;89094.00;;;-1.34;44.22
46782;BME280;32541;46.298;11.506;2023-04-04T03:39:18;89100.13;;;-1.34;43.10
46782;BME280;32541;46.298;11.506;2023-04-04T03:41:43;89096.06;;;-1.27;43.55
46782;BME280;32541;46.298;11.506;2023-04-04T03:44:08;89105.19;;;-1.30;43.35
46782;BME280;32541;46.298;11.506;2023-04-04T03:46:34;89109.06;;;-1.26;43.70
46782;BME280;32541;46.298;11.506;2023-04-04T03:48:59;89107.72;;;-1.19;43.17
46782;BME280;32541;46.298;11.506;2023-04-04T03:51:25;89100.44;;;-1.24;43.23
46782;BME280;32541;46.298;11.506;2023-04-04T03:53:52;89107.25;;;-1.36;44.25
46782;BME280;32541;46.298;11.506;2023-04-04T03:56:17;89099.69;;;-1.38;43.79
46782;BME280;32541;46.298;11.506;2023-04-04T03:58:43;89099.81;;;-1.30;44.09
46782;BME280;32541;46.298;11.506;2023-04-04T04:01:09;89099.63;;;-1.19;43.32
46782;BME280;32541;46.298;11.506;2023-04-04T04:03:35;89098.06;;;-1.15;43.37
46782;BME280;32541;46.298;11.506;2023-04-04T04:06:01;89099.09;;;-1.18;43.62
46782;BME280;32541;46.298;11.506;2023-04-04T04:08:27;89095.56;;;-1.26;44.30
46782;BME280;32541;46.298;11.506;2023-04-04T04:10:52;89095.97;;;-1.35;43.53
46782;BME280;32541;46.298;11.506;2023-04-04T04:13:19;89098.88;;;-1.46;43.03
46782;BME280;32541;46.298;11.506;2023-04-04T04:15:44;89103.38;;;-1.67;43.84
46782;BME280;32541;46.298;11.506;2023-04-04T04:18:09;89105.13;;;-1.70;43.88
46782;BME280;32541;46.298;11.506;2023-04-04T04:20:35;89104.59;;;-1.68;44.05
46782;BME280;32541;46.298;11.506;2023-04-04T04:23:00;89096.81;;;-1.72;44.34
46782;BME280;32541;46.298;11.506;2023-04-04T04:25:25;89100.97;;;-1.71;44.41
46782;BME280;32541;46.298;11.506;2023-04-04T04:27:54;89108.13;;;-1.73;44.73
46782;BME280;32541;46.298;11.506;2023-04-04T04:30:19;89104.91;;;-1.72;43.68
46782;BME280;32541;46.298;11.506;2023-04-04T04:32:45;89104.06;;;-1.80;43.87
46782;BME280;32541;46.298;11.506;2023-04-04T04:35:12;89103.13;;;-1.82;44.68
46782;BME280;32541;46.298;11.506;2023-04-04T04:37:38;89106.03;;;-1.80;44.18
46782;BME280;32541;46.298;11.506;2023-04-04T04:40:04;89108.44;;;-1.77;44.92
46782;BME280;32541;46.298;11.506;2023-04-04T04:42:29;89108.50;;;-1.82;44.74
46782;BME280;32541;46.298;11.506;2023-04-04T04:44:54;89111.59;;;-1.91;45.22
46782;BME280;32541;46.298;11.506;2023-04-04T04:47:20;89113.63;;;-1.97;44.69
46782;BME280;32541;46.298;11.506;2023-04-04T04:49:45;89107.22;;;-1.94;45.12
46782;BME280;32541;46.298;11.506;2023-04-04T04:52:13;89104.97;;;-1.90;45.18
46782;BME280;32541;46.298;11.506;2023-04-04T04:54:38;89120.91;;;-1.92;45.93
46782;BME280;32541;46.298;11.506;2023-04-04T04:57:03;89114.28;;;-1.91;47.00
46782;BME280;32541;46.298;11.506;2023-04-04T04:59:29;89118.66;;;-1.88;47.54
46782;BME280;32541;46.298;11.506;2023-04-04T05:01:54;89123.59;;;-1.92;46.88
46782;BME280;32541;46.298;11.506;2023-04-04T05:04:19;89116.25;;;-1.92;47.09
46782;BME280;32541;46.298;11.506;2023-04-04T05:06:45;89115.94;;;-1.88;46.51
46782;BME280;32541;46.298;11.506;2023-04-04T05:09:10;89112.56;;;-2.07;47.25
46782;BME280;32541;46.298;11.506;2023-04-04T05:11:35;89120.13;;;-2.06;47.40
46782;BME280;32541;46.298;11.506;2023-04-04T05:14:01;89120.13;;;-2.06;47.93
46782;BME280;32541;46.298;11.506;2023-04-04T05:16:26;89118.47;;;-2.09;48.16
46782;BME280;32541;46.298;11.506;2023-04-04T05:18:51;89118.97;;;-2.10;48.15
46782;BME280;32541;46.298;11.506;2023-04-04T05:21:17;89120.13;;;-2.06;49.71
46782;BME280;32541;46.298;11.506;2023-04-04T05:23:43;89111.31;;;-2.06;49.43
46782;BME280;32541;46.298;11.506;2023-04-04T05:26:09;89124.13;;;-2.12;50.51
46782;BME280;32541;46.298;11.506;2023-04-04T05:28:35;89115.97;;;-2.07;50.95
46782;BME280;32541;46.298;11.506;2023-04-04T05:31:00;89115.19;;;-2.20;49.25
46782;BME280;32541;46.298;11.506;2023-04-04T05:33:26;89122.75;;;-2.19;49.25
46782;BME280;32541;46.298;11.506;2023-04-04T05:35:51;89123.38;;;-2.26;48.90
46782;BME280;32541;46.298;11.506;2023-04-04T05:38:16;89123.84;;;-2.28;48.87
46782;BME280;32541;46.298;11.506;2023-04-04T05:40:42;89124.75;;;-2.38;49.11
46782;BME280;32541;46.298;11.506;2023-04-04T05:43:09;89136.00;;;-2.40;50.09
46782;BME280;32541;46.298;11.506;2023-04-04T05:45:34;89138.78;;;-2.45;49.83
46782;BME280;32541;46.298;11.506;2023-04-04T05:48:01;89136.16;;;-2.51;50.57
46782;BME280;32541;46.298;11.506;2023-04-04T05:50:26;89136.16;;;-2.51;50.83
46782;BME280;32541;46.298;11.506;2023-04-04T05:52:54;89140.25;;;-2.44;50.43
46782;BME280;32541;46.298;11.506;2023-04-04T05:55:21;89145.91;;;-2.48;50.40
46782;BME280;32541;46.298;11.506;2023-04-04T05:57:50;89142.13;;;-2.39;49.37
46782;BME280;32541;46.298;11.506;2023-04-04T06:00:16;89145.91;;;-2.29;49.55
46782;BME280;32541;46.298;11.506;2023-04-04T06:02:43;89142.78;;;-2.33;50.11
46782;BME280;32541;46.298;11.506;2023-04-04T06:05:09;89138.94;;;-2.38;50.52
46782;BME280;32541;46.298;11.506;2023-04-04T06:07:34;89148.16;;;-2.52;50.78
46782;BME280;32541;46.298;11.506;2023-04-04T06:10:00;89137.63;;;-2.50;51.01
46782;BME280;32541;46.298;11.506;2023-04-04T06:12:25;89137.19;;;-2.54;50.75
46782;BME280;32541;46.298;11.506;2023-04-04T06:14:51;89144.31;;;-2.56;50.70
46782;BME280;32541;46.298;11.506;2023-04-04T06:17:17;89137.09;;;-2.48;51.03
46782;BME280;32541;46.298;11.506;2023-04-04T06:19:42;89134.13;;;-2.45;50.74
46782;BME280;32541;46.298;11.506;2023-04-04T06:22:07;89130.56;;;-2.53;50.66
46782;BME280;32541;46.298;11.506;2023-04-04T06:24:33;89143.28;;;-2.53;50.50
46782;BME280;32541;46.298;11.506;2023-04-04T06:26:58;89134.28;;;-2.56;51.29
46782;BME280;32541;46.298;11.506;2023-04-04T06:29:23;89124.38;;;-2.48;50.61
46782;BME280;32541;46.298;11.506;2023-04-04T06:31:50;89126.84;;;-2.50;51.12
46782;BME280;32541;46.298;11.506;2023-04-04T06:34:15;89125.69;;;-2.54;50.69
46782;BME280;32541;46.298;11.506;2023-04-04T06:36:41;89129.03;;;-2.48;50.57
46782;BME280;32541;46.298;11.506;2023-04-04T06:39:06;89132.09;;;-2.39;50.53
46782;BME280;32541;46.298;11.506;2023-04-04T06:41:32;89124.16;;;-2.31;50.79
46782;BME280;32541;46.298;11.506;2023-04-04T06:43:57;89125.59;;;-2.30;51.19
46782;BME280;32541;46.298;11.506;2023-04-04T06:46:22;89132.97;;;-2.31;52.00
46782;BME280;32541;46.298;11.506;2023-04-04T06:48:49;89119.13;;;-2.21;51.23
46782;BME280;32541;46.298;11.506;2023-04-04T06:51:14;89123.97;;;-2.01;51.22
46782;BME280;32541;46.298;11.506;2023-04-04T06:53:40;89125.06;;;-1.91;50.55
46782;BME280;32541;46.298;11.506;2023-04-04T06:56:06;89120.97;;;-1.66;48.97
46782;BME280;32541;46.298;11.506;2023-04-04T06:58:31;89120.28;;;-1.66;49.18
46782;BME280;32541;46.298;11.506;2023-04-04T07:00:57;89116.78;;;-1.48;49.21
46782;BME280;32541;46.298;11.506;2023-04-04T07:03:24;89111.13;;;-1.19;48.35
46782;BME280;32541;46.298;11.506;2023-04-04T07:05:50;89110.72;;;-0.96;44.76
46782;BME280;32541;46.298;11.506;2023-04-04T07:08:15;89107.41;;;-0.76;45.66
46782;BME280;32541;46.298;11.506;2023-04-04T07:10:40;89110.91;;;-0.42;45.77
46782;BME280;32541;46.298;11.506;2023-04-04T07:13:06;89111.25;;;-0.12;43.49
46782;BME280;32541;46.298;11.506;2023-04-04T07:15:32;89104.72;;;0.18;41.06
46782;BME280;32541;46.298;11.506;2023-04-04T07:17:57;89101.09;;;0.56;40.87
46782;BME280;32541;46.298;11.506;2023-04-04T07:20:22;89099.94;;;0.65;40.25
46782;BME280;32541;46.298;11.506;2023-04-04T07:22:48;89094.13;;;0.40;40.25
46782;BME280;32541;46.298;11.506;2023-04-04T07:25:13;89095.63;;;0.49;38.89
46782;BME280;32541;46.298;11.506;2023-04-04T07:27:39;89091.72;;;0.57;40.26
46782;BME280;32541;46.298;11.506;2023-04-04T07:30:09;89104.16;;;0.53;41.03
46782;BME280;32541;46.298;11.506;2023-04-04T07:32:34;89098.28;;;0.41;40.88
46782;BME280;32541;46.298;11.506;2023-04-04T07:34:59;89100.97;;;0.62;40.85
46782;BME280;32541;46.298;11.506;2023-04-04T07:37:25;89089.75;;;1.07;40.69
46782;BME280;32541;46.298;11.506;2023-04-04T07:39:51;89095.09;;;1.56;40.38
46782;BME280;32541;46.298;11.506;2023-04-04T07:42:17;89085.56;;;2.13;37.26
46782;BME280;32541;46.298;11.506;2023-04-04T07:44:47;89088.31;;;2.29;37.52
46782;BME280;32541;46.298;11.506;2023-04-04T07:47:13;89093.19;;;2.30;36.94
46782;BME280;32541;46.298;11.506;2023-04-04T07:49:38;89087.47;;;2.71;39.45
46782;BME280;32541;46.298;11.506;2023-04-04T07:52:04;89084.88;;;3.42;38.22
46782;BME280;32541;46.298;11.506;2023-04-04T07:54:29;89071.97;;;4.20;34.24
46782;BME280;32541;46.298;11.506;2023-04-04T07:56:55;89068.78;;;4.71;33.25
46782;BME280;32541;46.298;11.506;2023-04-04T07:59:20;89079.38;;;5.09;32.66
46782;BME280;32541;46.298;11.506;2023-04-04T08:01:46;89076.81;;;5.52;32.13
46782;BME280;32541;46.298;11.506;2023-04-04T08:04:11;89073.28;;;5.25;30.29
46782;BME280;32541;46.298;11.506;2023-04-04T08:06:36;89072.44;;;4.66;31.07
46782;BME280;32541;46.298;11.506;2023-04-04T08:09:03;89074.38;;;4.40;32.07
46782;BME280;32541;46.298;11.506;2023-04-04T08:11:29;89075.53;;;4.30;30.93
46782;BME280;32541;46.298;11.506;2023-04-04T08:13:54;89074.50;;;5.07;31.06
46782;BME280;32541;46.298;11.506;2023-04-04T08:16:19;89067.00;;;5.15;30.36
46782;BME280;32541;46.298;11.506;2023-04-04T08:18:45;89066.97;;;5.40;30.72
46782;BME280;32541;46.298;11.506;2023-04-04T08:21:10;89061.09;;;6.02;30.67
46782;BME280;32541;46.298;11.506;2023-04-04T08:23:36;89053.72;;;6.66;29.56
46782;BME280;32541;46.298;11.506;2023-04-04T08:26:01;89050.84;;;7.37;27.58
46782;BME280;32541;46.298;11.506;2023-04-04T08:28:27;89053.53;;;7.82;27.76
46782;BME280;32541;46.298;11.506;2023-04-04T08:30:53;89059.41;;;7.14;27.47
46782;BME280;32541;46.298;11.506;2023-04-04T08:33:20;89047.97;;;6.35;27.35
46782;BME280;32541;46.298;11.506;2023-04-04T08:35:47;89052.06;;;5.58;28.31
46782;BME280;32541;46.298;11.506;2023-04-04T08:38:12;89048.06;;;6.54;28.09
46782;BME280;32541;46.298;11.506;2023-04-04T08:40:38;89051.72;;;7.49;27.38
46782;BME280;32541;46.298;11.506;2023-04-04T08:43:04;89044.50;;;8.28;26.07
46782;BME280;32541;46.298;11.506;2023-04-04T08:45:31;89031.94;;;8.34;24.62
46782;BME280;32541;46.298;11.506;2023-04-04T08:47:57;89040.16;;;8.44;24.78
46782;BME280;32541;46.298;11.506;2023-04-04T08:50:26;89043.47;;;8.52;24.53
46782;BME280;32541;46.298;11.506;2023-04-04T08:52:53;89037.84;;;8.41;25.10
46782;BME280;32541;46.298;11.506;2023-04-04T08:55:19;89029.41;;;8.77;26.85
46782;BME280;32541;46.298;11.506;2023-04-04T08:57:45;89024.44;;;8.45;25.61
46782;BME280;32541;46.298;11.506;2023-04-04T09:00:12;89029.84;;;8.83;25.66
46782;BME280;32541;46.298;11.506;2023-04-04T09:02:54;89027.09;;;9.54;24.57
46782;BME280;32541;46.298;11.506;2023-04-04T09:05:22;89025.66;;;9.53;24.08
46782;BME280;32541;46.298;11.506;2023-04-04T09:07:49;89021.38;;;9.10;23.70
46782;BME280;32541;46.298;11.506;2023-04-04T09:10:15;89021.06;;;8.65;25.00
46782;BME280;32541;46.298;11.506;2023-04-04T09:12:43;89026.50;;;9.25;25.70
46782;BME280;32541;46.298;11.506;2023-04-04T09:15:10;89028.38;;;9.32;24.53
46782;BME280;32541;46.298;11.506;2023-04-04T09:17:35;89027.38;;;9.27;24.24
46782;BME280;32541;46.298;11.506;2023-04-04T09:20:02;89020.25;;;9.34;23.69
46782;BME280;32541;46.298;11.506;2023-04-04T09:22:30;89011.16;;;9.62;23.57
46782;BME280;32541;46.298;11.506;2023-04-04T09:24:56;89018.31;;;9.77;24.23
46782;BME280;32541;46.298;11.506;2023-04-04T09:27:22;89023.97;;;9.38;23.51
46782;BME280;32541;46.298;11.506;2023-04-04T09:29:47;89018.88;;;9.75;23.97
46782;BME280;32541;46.298;11.506;2023-04-04T09:32:13;89009.97;;;10.07;23.96
46782;BME280;32541;46.298;11.506;2023-04-04T09:34:41;89014.19;;;10.09;22.98
46782;BME280;32541;46.298;11.506;2023-04-04T09:37:07;89010.53;;;9.94;23.35
46782;BME280;32541;46.298;11.506;2023-04-04T09:39:33;89008.09;;;10.10;23.94
46782;BME280;32541;46.298;11.506;2023-04-04T09:42:00;89015.88;;;10.35;23.79
46782;BME280;32541;46.298;11.506;2023-04-04T09:44:26;89014.84;;;10.51;23.40
46782;BME280;32541;46.298;11.506;2023-04-04T09:47:22;89000.66;;;10.55;23.34
46782;BME280;32541;46.298;11.506;2023-04-04T09:49:48;89000.13;;;10.80;22.20
46782;BME280;32541;46.298;11.506;2023-04-04T09:52:19;88996.81;;;10.60;24.39
46782;BME280;32541;46.298;11.506;2023-04-04T09:54:59;88993.34;;;11.04;24.28
46782;BME280;32541;46.298;11.506;2023-04-04T09:57:33;88978.69;;;10.78;22.20
46782;BME280;32541;46.298;11.506;2023-04-04T10:00:00;88979.47;;;9.49;23.42
46782;BME280;32541;46.298;11.506;2023-04-04T10:02:26;88998.41;;;9.45;23.57
46782;BME280;32541;46.298;11.506;2023-04-04T10:04:54;88992.97;;;9.57;23.40
46782;BME280;32541;46.298;11.506;2023-04-04T10:07:30;88993.66;;;9.88;23.36
46782;BME280;32541;46.298;11.506;2023-04-04T10:10:00;88991.22;;;9.10;22.20
46782;BME280;32541;46.298;11.506;2023-04-04T10:12:26;88985.94;;;9.75;23.61
46782;BME280;32541;46.298;11.506;2023-04-04T10:14:55;88994.63;;;9.93;23.68
46782;BME280;32541;46.298;11.506;2023-04-04T10:17:22;88994.75;;;9.53;23.08
46782;BME280;32541;46.298;11.506;2023-04-04T10:19:48;88992.38;;;9.07;24.04
46782;BME280;32541;46.298;11.506;2023-04-04T10:22:15;88988.84;;;8.85;24.09
46782;BME280;32541;46.298;11.506;2023-04-04T10:24:41;88980.75;;;9.18;24.31
46782;BME280;32541;46.298;11.506;2023-04-04T10:27:07;88977.97;;;9.58;23.98
46782;BME280;32541;46.298;11.506;2023-04-04T10:29:32;88983.56;;;10.24;23.95
46782;BME280;32541;46.298;11.506;2023-04-04T10:32:04;88969.00;;;9.79;22.17
46782;BME280;32541;46.298;11.506;2023-04-04T10:34:54;88973.22;;;10.13;23.98
46782;BME280;32541;46.298;11.506;2023-04-04T10:37:25;88983.53;;;10.45;21.86
46782;BME280;32541;46.298;11.506;2023-04-04T10:42:31;88973.50;;;9.95;23.94
46782;BME280;32541;46.298;11.506;2023-04-04T10:45:05;88972.81;;;10.28;20.88
46782;BME280;32541;46.298;11.506;2023-04-04T10:47:31;88976.25;;;10.17;22.60
46782;BME280;32541;46.298;11.506;2023-04-04T10:49:58;88971.44;;;10.38;20.36
46782;BME280;32541;46.298;11.506;2023-04-04T10:52:26;88972.44;;;8.75;21.56
46782;BME280;32541;46.298;11.506;2023-04-04T10:54:55;88962.47;;;7.44;22.98
46782;BME280;32541;46.298;11.506;2023-04-04T10:57:21;88955.56;;;8.10;23.35
46782;BME280;32541;46.298;11.506;2023-04-04T10:59:57;88952.97;;;8.12;22.37
46782;BME280;32541;46.298;11.506;2023-04-04T11:05:34;88958.13;;;8.86;23.14
46782;BME280;32541;46.298;11.506;2023-04-04T11:08:15;88960.19;;;8.07;22.04
46782;BME280;32541;46.298;11.506;2023-04-04T11:10:46;88969.81;;;7.60;22.48
46782;BME280;32541;46.298;11.506;2023-04-04T11:15:53;88967.91;;;7.24;23.98
46782;BME280;32541;46.298;11.506;2023-04-04T11:18:21;88958.03;;;7.67;22.95
46782;BME280;32541;46.298;11.506;2023-04-04T11:20:47;88964.19;;;8.25;22.44
46782;BME280;32541;46.298;11.506;2023-04-04T11:23:17;88969.38;;;8.21;22.17
46782;BME280;32541;46.298;11.506;2023-04-04T11:25:53;88953.84;;;7.86;23.20
46782;BME280;32541;46.298;11.506;2023-04-04T11:34:07;88942.66;;;9.43;22.63
46782;BME280;32541;46.298;11.506;2023-04-04T11:39:26;88954.63;;;9.47;21.86
46782;BME280;32541;46.298;11.506;2023-04-04T11:42:04;88944.06;;;8.61;21.46
46782;BME280;32541;46.298;11.506;2023-04-04T11:44:32;88930.09;;;8.57;23.33
46782;BME280;32541;46.298;11.506;2023-04-04T11:47:08;88927.56;;;8.80;21.61
46782;BME280;32541;46.298;11.506;2023-04-04T11:49:41;88916.84;;;9.36;22.20
46782;BME280;32541;46.298;11.506;2023-04-04T11:52:09;88921.97;;;8.19;20.88
46782;BME280;32541;46.298;11.506;2023-04-04T11:54:40;88933.13;;;7.54;21.53
46782;BME280;32541;46.298;11.506;2023-04-04T11:57:07;88927.19;;;7.57;22.32
46782;BME280;32541;46.298;11.506;2023-04-04T11:59:38;88928.81;;;7.51;21.88
46782;BME280;32541;46.298;11.506;2023-04-04T12:02:04;88926.91;;;7.44;22.18
46782;BME280;32541;46.298;11.506;2023-04-04T12:04:30;88928.66;;;7.39;21.85
46782;BME280;32541;46.298;11.506;2023-04-04T12:06:55;88915.09;;;7.60;23.08
46782;BME280;32541;46.298;11.506;2023-04-04T12:09:23;88918.56;;;7.70;22.77
46782;BME280;32541;46.298;11.506;2023-04-04T12:11:49;88923.31;;;7.79;22.46
46782;BME280;32541;46.298;11.506;2023-04-04T12:14:21;88923.72;;;7.09;21.32
46782;BME280;32541;46.298;11.506;2023-04-04T12:16:47;88915.97;;;7.15;21.43
46782;BME280;32541;46.298;11.506;2023-04-04T12:19:13;88916.69;;;7.15;21.99
46782;BME280;32541;46.298;11.506;2023-04-04T12:21:39;88899.97;;;7.98;21.71
46782;BME280;32541;46.298;11.506;2023-04-04T12:24:08;88893.03;;;8.06;21.40
46782;BME280;32541;46.298;11.506;2023-04-04T12:26:36;88901.19;;;8.35;22.29
46782;BME280;32541;46.298;11.506;2023-04-04T12:29:02;88892.69;;;8.31;21.90
46782;BME280;32541;46.298;11.506;2023-04-04T12:31:28;88921.53;;;8.22;23.46
46782;BME280;32541;46.298;11.506;2023-04-04T12:33:54;88903.66;;;8.12;21.41
46782;BME280;32541;46.298;11.506;2023-04-04T12:36:20;88892.97;;;8.75;23.01
46782;BME280;32541;46.298;11.506;2023-04-04T12:39:05;88890.31;;;9.50;21.79
46782;BME280;32541;46.298;11.506;2023-04-04T12:41:32;88886.31;;;10.17;22.51
46782;BME280;32541;46.298;11.506;2023-04-04T12:46:27;88882.47;;;11.01;22.04
46782;BME280;32541;46.298;11.506;2023-04-04T12:48:53;88875.16;;;10.94;21.89
46782;BME280;32541;46.298;11.506;2023-04-04T12:51:19;88894.78;;;11.12;21.29
46782;BME280;32541;46.298;11.506;2023-04-04T12:53:50;88894.06;;;11.11;20.01
46782;BME280;32541;46.298;11.506;2023-04-04T12:56:24;88873.38;;;10.99;20.22
46782;BME280;32541;46.298;11.506;2023-04-04T12:58:50;88867.34;;;11.26;21.63
46782;BME280;32541;46.298;11.506;2023-04-04T13:01:15;88872.19;;;11.62;22.00
46782;BME280;32541;46.298;11.506;2023-04-04T13:03:43;88878.28;;;12.09;22.80
46782;BME280;32541;46.298;11.506;2023-04-04T13:06:16;88873.59;;;11.86;22.70
46782;BME280;32541;46.298;11.506;2023-04-04T13:08:49;88874.84;;;11.72;19.69
46782;BME280;32541;46.298;11.506;2023-04-04T13:11:15;88888.31;;;11.79;20.98